Terminal Aerodrome Forecast
Issued by NWS

Home | Current Version | Previous Version | Text Only | Print | Product List | Glossary On
Versions: 1 2 3 4 5 6 7 8 9 10 11 12 13 14 15 16
317
FTUS43 KTOP 302320
TAFMHK
TAF
KMHK 302320Z 3100/3124 12007KT P6SM SCT050
     FM310700 13007KT P6SM VCTS SCT040 BKN080CB
     FM311300 14010KT P6SM SCT040 SCT100=

USA.gov is the U.S. government's official web portal to all federal, state and local government web resources and services.